KOWB/OWB METAR and TAF weather

Enter ICAO airport designator
Station Type Date Time Source
KOWB METAR 2021/10/24 22:56 UTC NOAA

KOWB 242256Z 18011G20KT 10SM CLR 24/15 A2982 RMK AO2 SLP094 T02440150 $


Station Type Date Time Source
KOWB Decoded METAR 2021/10/24 22:56 UTC NOAA

Owensboro, Owensboro-Daviess County Airport, KY, United States (KOWB) 37-44-24N 087-10-00W
Oct 24, 2021 - 06:56 PM EDT / 2021.10.24 2256 UTC
Wind: from the S (180 degrees) at 13 MPH (11 KT) gusting to 23 MPH (20 KT):0
Visibility: 10 mile(s):0
Sky conditions: clear
Temperature: 75.9 F (24.4 C)
Dew Point: 59.0 F (15.0 C)
Relative Humidity: 55%
Pressure (altimeter): 29.82 in. Hg (1009 hPa)
ob: KOWB 242256Z 18011G20KT 10SM CLR 24/15 A2982 RMK AO2 SLP094 T02440150
cycle: 23

Station Type Date Time Source
KOWB TAF 2021/10/24 20:16 UTC NOAA

TAF
AMD KOWB 242014Z 2420/2518 21019G30KT P6SM SCT050
FM242200 19013G24KT P6SM SKC
FM250400 19014G25KT P6SM VCSH BKN035 BKN150
FM250600 21013G23KT 5SM -TSRA BR OVC035CB
TEMPO 2506/2510 2SM TSRA BR OVC015CB
FM251000 24012G20KT P6SM OVC023

Example: see airport list